sensor_id;sensor_type;location;lat;lon;timestamp;temperature;humidity
23629;DHT22;11991;57.150;-2.134;2023-03-23T00:01:10;8.20;99.90
23629;DHT22;11991;57.150;-2.134;2023-03-23T00:03:39;8.20;99.90
23629;DHT22;11991;57.150;-2.134;2023-03-23T00:06:06;8.20;99.90
23629;DHT22;11991;57.150;-2.134;2023-03-23T00:08:34;8.20;99.90
23629;DHT22;11991;57.150;-2.134;2023-03-23T00:11:04;8.30;99.90
23629;DHT22;11991;57.150;-2.134;2023-03-23T00:13:30;8.30;99.90
23629;DHT22;11991;57.150;-2.134;2023-03-23T00:15:58;8.30;99.90
23629;DHT22;11991;57.150;-2.134;2023-03-23T00:18:25;8.30;99.90
23629;DHT22;11991;57.150;-2.134;2023-03-23T00:20:54;8.30;99.90
23629;DHT22;11991;57.150;-2.134;2023-03-23T00:23:22;8.30;99.90
23629;DHT22;11991;57.150;-2.134;2023-03-23T00:25:54;8.30;99.90
23629;DHT22;11991;57.150;-2.134;2023-03-23T00:28:24;8.30;99.90
23629;DHT22;11991;57.150;-2.134;2023-03-23T00:31:10;8.30;99.90
23629;DHT22;11991;57.150;-2.134;2023-03-23T00:33:37;8.20;99.90
23629;DHT22;11991;57.150;-2.134;2023-03-23T00:36:08;8.20;99.90
23629;DHT22;11991;57.150;-2.134;2023-03-23T00:38:35;8.20;99.90
23629;DHT22;11991;57.150;-2.134;2023-03-23T00:41:02;8.20;99.90
23629;DHT22;11991;57.150;-2.134;2023-03-23T00:43:29;8.20;99.90
23629;DHT22;11991;57.150;-2.134;2023-03-23T00:45:56;8.20;99.90
23629;DHT22;11991;57.150;-2.134;2023-03-23T00:48:23;8.20;99.90
23629;DHT22;11991;57.150;-2.134;2023-03-23T00:50:51;8.20;99.90
23629;DHT22;11991;57.150;-2.134;2023-03-23T00:53:18;8.20;99.90
23629;DHT22;11991;57.150;-2.134;2023-03-23T00:55:46;8.20;99.90
23629;DHT22;11991;57.150;-2.134;2023-03-23T00:58:13;8.20;99.90
23629;DHT22;11991;57.150;-2.134;2023-03-23T01:00:40;8.20;99.90
23629;DHT22;11991;57.150;-2.134;2023-03-23T01:03:08;8.20;99.90
23629;DHT22;11991;57.150;-2.134;2023-03-23T01:05:40;8.20;99.90
23629;DHT22;11991;57.150;-2.134;2023-03-23T01:08:07;8.20;99.90
23629;DHT22;11991;57.150;-2.134;2023-03-23T01:10:34;8.20;99.90
23629;DHT22;11991;57.150;-2.134;2023-03-23T01:13:06;8.20;99.90
23629;DHT22;11991;57.150;-2.134;2023-03-23T01:15:32;8.20;99.90
23629;DHT22;11991;57.150;-2.134;2023-03-23T01:17:58;8.20;99.90
23629;DHT22;11991;57.150;-2.134;2023-03-23T01:20:25;8.30;99.90
23629;DHT22;11991;57.150;-2.134;2023-03-23T01:22:58;8.30;99.90
23629;DHT22;11991;57.150;-2.134;2023-03-23T01:25:27;8.30;99.90
23629;DHT22;11991;57.150;-2.134;2023-03-23T01:27:54;8.30;99.90
23629;DHT22;11991;57.150;-2.134;2023-03-23T01:30:20;8.30;99.90
23629;DHT22;11991;57.150;-2.134;2023-03-23T01:32:46;8.30;99.90
23629;DHT22;11991;57.150;-2.134;2023-03-23T01:35:13;8.30;99.90
23629;DHT22;11991;57.150;-2.134;2023-03-23T01:37:39;8.40;99.90
23629;DHT22;11991;57.150;-2.134;2023-03-23T01:40:06;8.40;99.90
23629;DHT22;11991;57.150;-2.134;2023-03-23T01:42:35;8.40;99.90
23629;DHT22;11991;57.150;-2.134;2023-03-23T01:45:29;8.40;99.90
23629;DHT22;11991;57.150;-2.134;2023-03-23T01:48:41;8.40;99.90
23629;DHT22;11991;57.150;-2.134;2023-03-23T01:53:22;8.40;99.90
23629;DHT22;11991;57.150;-2.134;2023-03-23T01:55:50;8.30;99.90
23629;DHT22;11991;57.150;-2.134;2023-03-23T01:58:23;8.30;99.90
23629;DHT22;11991;57.150;-2.134;2023-03-23T02:00:54;8.30;99.90
23629;DHT22;11991;57.150;-2.134;2023-03-23T02:03:21;8.30;99.90
23629;DHT22;11991;57.150;-2.134;2023-03-23T02:05:51;8.30;99.90
23629;DHT22;11991;57.150;-2.134;2023-03-23T02:08:27;8.20;99.90
23629;DHT22;11991;57.150;-2.134;2023-03-23T02:10:55;8.20;99.90
23629;DHT22;11991;57.150;-2.134;2023-03-23T02:13:21;8.20;99.90
23629;DHT22;11991;57.150;-2.134;2023-03-23T02:16:04;8.20;99.90
23629;DHT22;11991;57.150;-2.134;2023-03-23T02:18:38;8.10;99.90
23629;DHT22;11991;57.150;-2.134;2023-03-23T02:21:23;8.10;99.90
23629;DHT22;11991;57.150;-2.134;2023-03-23T02:24:06;8.10;99.90
23629;DHT22;11991;57.150;-2.134;2023-03-23T02:26:54;8.10;99.90
23629;DHT22;11991;57.150;-2.134;2023-03-23T02:34:41;8.10;99.90
23629;DHT22;11991;57.150;-2.134;2023-03-23T02:37:22;8.10;99.90
23629;DHT22;11991;57.150;-2.134;2023-03-23T02:39:52;8.10;99.90
23629;DHT22;11991;57.150;-2.134;2023-03-23T02:42:24;8.00;99.90
23629;DHT22;11991;57.150;-2.134;2023-03-23T02:44:53;8.00;99.90
23629;DHT22;11991;57.150;-2.134;2023-03-23T02:47:23;8.10;99.90
23629;DHT22;11991;57.150;-2.134;2023-03-23T02:49:52;8.00;99.90
23629;DHT22;11991;57.150;-2.134;2023-03-23T02:52:25;8.00;99.90
23629;DHT22;11991;57.150;-2.134;2023-03-23T02:54:53;8.00;99.90
23629;DHT22;11991;57.150;-2.134;2023-03-23T02:57:22;8.00;99.90
23629;DHT22;11991;57.150;-2.134;2023-03-23T02:59:54;8.00;99.90
23629;DHT22;11991;57.150;-2.134;2023-03-23T03:02:35;8.00;99.90
23629;DHT22;11991;57.150;-2.134;2023-03-23T03:10:26;7.90;99.90
23629;DHT22;11991;57.150;-2.134;2023-03-23T03:13:37;7.90;99.90
23629;DHT22;11991;57.150;-2.134;2023-03-23T03:16:05;7.90;99.90
23629;DHT22;11991;57.150;-2.134;2023-03-23T03:21:43;8.00;99.90
23629;DHT22;11991;57.150;-2.134;2023-03-23T03:24:14;7.90;99.90
23629;DHT22;11991;57.150;-2.134;2023-03-23T03:26:45;7.90;99.90
23629;DHT22;11991;57.150;-2.134;2023-03-23T03:29:44;7.80;99.90
23629;DHT22;11991;57.150;-2.134;2023-03-23T03:32:16;7.80;99.90
23629;DHT22;11991;57.150;-2.134;2023-03-23T03:34:44;7.70;99.90
23629;DHT22;11991;57.150;-2.134;2023-03-23T03:37:11;7.70;99.90
23629;DHT22;11991;57.150;-2.134;2023-03-23T03:39:38;7.70;99.90
23629;DHT22;11991;57.150;-2.134;2023-03-23T03:42:05;7.60;99.90
23629;DHT22;11991;57.150;-2.134;2023-03-23T03:44:33;7.60;99.90
23629;DHT22;11991;57.150;-2.134;2023-03-23T03:46:59;7.60;99.90
23629;DHT22;11991;57.150;-2.134;2023-03-23T03:49:25;7.50;99.90
23629;DHT22;11991;57.150;-2.134;2023-03-23T03:51:53;7.50;99.90
23629;DHT22;11991;57.150;-2.134;2023-03-23T03:54:27;7.40;99.90
23629;DHT22;11991;57.150;-2.134;2023-03-23T03:56:53;7.40;99.90
23629;DHT22;11991;57.150;-2.134;2023-03-23T03:59:35;7.40;99.90
23629;DHT22;11991;57.150;-2.134;2023-03-23T04:02:27;7.40;99.90
23629;DHT22;11991;57.150;-2.134;2023-03-23T04:04:54;7.30;99.90
23629;DHT22;11991;57.150;-2.134;2023-03-23T04:07:20;7.30;99.90
23629;DHT22;11991;57.150;-2.134;2023-03-23T04:09:48;7.30;99.90
23629;DHT22;11991;57.150;-2.134;2023-03-23T04:12:18;7.30;99.90
23629;DHT22;11991;57.150;-2.134;2023-03-23T04:14:57;7.20;99.90
23629;DHT22;11991;57.150;-2.134;2023-03-23T04:17:34;7.20;99.90
23629;DHT22;11991;57.150;-2.134;2023-03-23T04:20:02;7.20;99.90
23629;DHT22;11991;57.150;-2.134;2023-03-23T04:22:38;7.20;99.90
23629;DHT22;11991;57.150;-2.134;2023-03-23T04:25:04;7.20;99.90
23629;DHT22;11991;57.150;-2.134;2023-03-23T04:27:35;7.20;99.90
23629;DHT22;11991;57.150;-2.134;2023-03-23T04:30:05;7.20;99.90
23629;DHT22;11991;57.150;-2.134;2023-03-23T04:32:58;7.10;99.90
23629;DHT22;11991;57.150;-2.134;2023-03-23T04:35:29;7.10;99.90
23629;DHT22;11991;57.150;-2.134;2023-03-23T04:38:13;7.10;99.90
23629;DHT22;11991;57.150;-2.134;2023-03-23T04:40:43;7.10;99.90
23629;DHT22;11991;57.150;-2.134;2023-03-23T04:43:25;7.20;99.90
23629;DHT22;11991;57.150;-2.134;2023-03-23T04:46:14;7.20;99.90
23629;DHT22;11991;57.150;-2.134;2023-03-23T04:48:45;7.20;99.90
23629;DHT22;11991;57.150;-2.134;2023-03-23T04:51:22;7.20;99.90
23629;DHT22;11991;57.150;-2.134;2023-03-23T04:53:52;7.20;99.90
23629;DHT22;11991;57.150;-2.134;2023-03-23T04:56:19;7.20;99.90
23629;DHT22;11991;57.150;-2.134;2023-03-23T04:58:46;7.20;99.90
23629;DHT22;11991;57.150;-2.134;2023-03-23T05:01:22;7.20;99.90
23629;DHT22;11991;57.150;-2.134;2023-03-23T05:04:02;7.20;99.90
23629;DHT22;11991;57.150;-2.134;2023-03-23T05:06:29;7.20;99.90
23629;DHT22;11991;57.150;-2.134;2023-03-23T05:09:01;7.10;99.90
23629;DHT22;11991;57.150;-2.134;2023-03-23T05:11:28;7.20;99.90
23629;DHT22;11991;57.150;-2.134;2023-03-23T05:13:54;7.20;99.90
23629;DHT22;11991;57.150;-2.134;2023-03-23T05:16:22;7.20;99.90
23629;DHT22;11991;57.150;-2.134;2023-03-23T05:18:48;7.20;99.90
23629;DHT22;11991;57.150;-2.134;2023-03-23T05:21:16;7.20;99.90
23629;DHT22;11991;57.150;-2.134;2023-03-23T05:23:48;7.20;99.90
23629;DHT22;11991;57.150;-2.134;2023-03-23T05:26:22;7.20;99.90
23629;DHT22;11991;57.150;-2.134;2023-03-23T05:28:59;7.20;99.90
23629;DHT22;11991;57.150;-2.134;2023-03-23T05:31:38;7.20;99.90
23629;DHT22;11991;57.150;-2.134;2023-03-23T05:34:04;7.20;99.90
23629;DHT22;11991;57.150;-2.134;2023-03-23T05:36:45;7.20;99.90
23629;DHT22;11991;57.150;-2.134;2023-03-23T05:39:18;7.30;99.90
23629;DHT22;11991;57.150;-2.134;2023-03-23T05:41:58;7.30;99.90
23629;DHT22;11991;57.150;-2.134;2023-03-23T05:44:31;7.30;99.90
23629;DHT22;11991;57.150;-2.134;2023-03-23T05:46:59;7.30;99.90
23629;DHT22;11991;57.150;-2.134;2023-03-23T05:49:25;7.30;99.90
23629;DHT22;11991;57.150;-2.134;2023-03-23T05:51:53;7.30;99.90
23629;DHT22;11991;57.150;-2.134;2023-03-23T05:54:20;7.30;99.90
23629;DHT22;11991;57.150;-2.134;2023-03-23T05:56:48;7.30;99.90
23629;DHT22;11991;57.150;-2.134;2023-03-23T05:59:35;7.30;99.90
23629;DHT22;11991;57.150;-2.134;2023-03-23T06:02:04;7.30;99.90
23629;DHT22;11991;57.150;-2.134;2023-03-23T06:04:30;7.30;99.90
23629;DHT22;11991;57.150;-2.134;2023-03-23T06:07:11;7.30;99.90
23629;DHT22;11991;57.150;-2.134;2023-03-23T06:09:42;7.30;99.90
23629;DHT22;11991;57.150;-2.134;2023-03-23T06:12:28;7.30;99.90
23629;DHT22;11991;57.150;-2.134;2023-03-23T06:15:23;7.30;99.90
23629;DHT22;11991;57.150;-2.134;2023-03-23T06:18:01;7.30;99.90
23629;DHT22;11991;57.150;-2.134;2023-03-23T06:20:35;7.30;99.90
23629;DHT22;11991;57.150;-2.134;2023-03-23T06:23:14;7.30;99.90
23629;DHT22;11991;57.150;-2.134;2023-03-23T06:25:41;7.20;99.90
23629;DHT22;11991;57.150;-2.134;2023-03-23T06:28:09;7.20;99.90
23629;DHT22;11991;57.150;-2.134;2023-03-23T06:30:40;7.20;99.90
23629;DHT22;11991;57.150;-2.134;2023-03-23T06:33:06;7.20;99.90
23629;DHT22;11991;57.150;-2.134;2023-03-23T06:35:53;7.20;99.90
23629;DHT22;11991;57.150;-2.134;2023-03-23T06:38:57;7.20;99.90
23629;DHT22;11991;57.150;-2.134;2023-03-23T06:41:33;7.10;99.90
23629;DHT22;11991;57.150;-2.134;2023-03-23T06:43:59;7.10;99.90
23629;DHT22;11991;57.150;-2.134;2023-03-23T06:46:30;7.10;99.90
23629;DHT22;11991;57.150;-2.134;2023-03-23T06:48:56;7.10;99.90
23629;DHT22;11991;57.150;-2.134;2023-03-23T06:51:33;7.10;99.90
23629;DHT22;11991;57.150;-2.134;2023-03-23T06:53:59;7.20;99.90
23629;DHT22;11991;57.150;-2.134;2023-03-23T06:56:30;7.20;99.90
23629;DHT22;11991;57.150;-2.134;2023-03-23T06:58:56;7.20;99.90
23629;DHT22;11991;57.150;-2.134;2023-03-23T07:01:24;7.20;99.90
23629;DHT22;11991;57.150;-2.134;2023-03-23T07:03:56;7.20;99.90
23629;DHT22;11991;57.150;-2.134;2023-03-23T07:06:34;7.20;99.90
23629;DHT22;11991;57.150;-2.134;2023-03-23T07:09:01;7.20;99.90
23629;DHT22;11991;57.150;-2.134;2023-03-23T07:11:28;7.20;99.90
23629;DHT22;11991;57.150;-2.134;2023-03-23T07:13:58;7.20;99.90
23629;DHT22;11991;57.150;-2.134;2023-03-23T07:16:24;7.20;99.90
23629;DHT22;11991;57.150;-2.134;2023-03-23T07:18:52;7.30;99.90
23629;DHT22;11991;57.150;-2.134;2023-03-23T07:21:19;7.30;99.90
23629;DHT22;11991;57.150;-2.134;2023-03-23T07:23:45;7.30;99.90
23629;DHT22;11991;57.150;-2.134;2023-03-23T07:26:18;7.30;99.90
23629;DHT22;11991;57.150;-2.134;2023-03-23T07:28:49;7.30;99.90
23629;DHT22;11991;57.150;-2.134;2023-03-23T07:31:30;7.40;99.90
23629;DHT22;11991;57.150;-2.134;2023-03-23T07:33:56;7.40;99.90
23629;DHT22;11991;57.150;-2.134;2023-03-23T07:36:29;7.40;99.90
23629;DHT22;11991;57.150;-2.134;2023-03-23T07:38:55;7.40;99.90
23629;DHT22;11991;57.150;-2.134;2023-03-23T07:41:22;7.40;99.90
23629;DHT22;11991;57.150;-2.134;2023-03-23T07:43:51;7.50;99.90
23629;DHT22;11991;57.150;-2.134;2023-03-23T07:46:31;7.50;99.90
23629;DHT22;11991;57.150;-2.134;2023-03-23T07:49:08;7.50;99.90
23629;DHT22;11991;57.150;-2.134;2023-03-23T07:51:40;7.50;99.90
23629;DHT22;11991;57.150;-2.134;2023-03-23T07:54:10;7.50;99.90
23629;DHT22;11991;57.150;-2.134;2023-03-23T07:57:02;7.60;99.90
23629;DHT22;11991;57.150;-2.134;2023-03-23T07:59:35;7.60;99.90
23629;DHT22;11991;57.150;-2.134;2023-03-23T08:02:02;7.70;99.90
23629;DHT22;11991;57.150;-2.134;2023-03-23T08:04:47;7.70;99.90
23629;DHT22;11991;57.150;-2.134;2023-03-23T08:07:32;7.70;99.90
23629;DHT22;11991;57.150;-2.134;2023-03-23T08:10:23;7.80;99.90
23629;DHT22;11991;57.150;-2.134;2023-03-23T08:13:18;7.80;99.90
23629;DHT22;11991;57.150;-2.134;2023-03-23T08:15:48;7.90;99.90
23629;DHT22;11991;57.150;-2.134;2023-03-23T08:18:37;8.00;99.90
23629;DHT22;11991;57.150;-2.134;2023-03-23T08:21:20;8.00;99.90
23629;DHT22;11991;57.150;-2.134;2023-03-23T08:24:19;8.10;99.90
23629;DHT22;11991;57.150;-2.134;2023-03-23T08:27:09;8.10;99.90
23629;DHT22;11991;57.150;-2.134;2023-03-23T08:29:37;8.20;99.90
23629;DHT22;11991;57.150;-2.134;2023-03-23T08:32:23;8.20;99.90
23629;DHT22;11991;57.150;-2.134;2023-03-23T08:35:22;8.30;99.90
23629;DHT22;11991;57.150;-2.134;2023-03-23T08:38:28;8.30;99.90
23629;DHT22;11991;57.150;-2.134;2023-03-23T08:41:14;8.40;99.90
23629;DHT22;11991;57.150;-2.134;2023-03-23T08:44:12;8.40;99.90
23629;DHT22;11991;57.150;-2.134;2023-03-23T08:46:55;8.40;99.90
23629;DHT22;11991;57.150;-2.134;2023-03-23T08:49:41;8.50;99.90
23629;DHT22;11991;57.150;-2.134;2023-03-23T08:52:28;8.50;99.90
23629;DHT22;11991;57.150;-2.134;2023-03-23T08:55:08;8.50;99.90
23629;DHT22;11991;57.150;-2.134;2023-03-23T08:57:55;8.50;99.90
23629;DHT22;11991;57.150;-2.134;2023-03-23T09:00:42;8.60;99.90
23629;DHT22;11991;57.150;-2.134;2023-03-23T09:03:47;8.60;99.90
23629;DHT22;11991;57.150;-2.134;2023-03-23T09:06:34;8.60;99.90
23629;DHT22;11991;57.150;-2.134;2023-03-23T09:09:00;8.70;99.90
23629;DHT22;11991;57.150;-2.134;2023-03-23T09:11:27;8.70;99.90
23629;DHT22;11991;57.150;-2.134;2023-03-23T09:13:54;8.70;99.90
23629;DHT22;11991;57.150;-2.134;2023-03-23T09:16:20;8.80;99.90
23629;DHT22;11991;57.150;-2.134;2023-03-23T09:18:46;8.80;99.90
23629;DHT22;11991;57.150;-2.134;2023-03-23T09:21:12;8.80;99.90
23629;DHT22;11991;57.150;-2.134;2023-03-23T09:23:38;8.90;99.90
23629;DHT22;11991;57.150;-2.134;2023-03-23T09:26:04;8.90;99.90
23629;DHT22;11991;57.150;-2.134;2023-03-23T09:28:31;9.00;99.90
23629;DHT22;11991;57.150;-2.134;2023-03-23T09:30:57;9.00;99.90
23629;DHT22;11991;57.150;-2.134;2023-03-23T09:33:24;9.10;99.90
23629;DHT22;11991;57.150;-2.134;2023-03-23T09:35:51;9.10;99.90
23629;DHT22;11991;57.150;-2.134;2023-03-23T09:38:17;9.10;99.90
23629;DHT22;11991;57.150;-2.134;2023-03-23T09:40:49;9.20;99.90
23629;DHT22;11991;57.150;-2.134;2023-03-23T09:43:33;9.20;99.90
23629;DHT22;11991;57.150;-2.134;2023-03-23T09:48:52;9.20;99.90
23629;DHT22;11991;57.150;-2.134;2023-03-23T09:51:42;9.20;99.90
23629;DHT22;11991;57.150;-2.134;2023-03-23T09:54:14;9.30;99.90
23629;DHT22;11991;57.150;-2.134;2023-03-23T09:56:44;9.30;99.90
23629;DHT22;11991;57.150;-2.134;2023-03-23T10:01:53;9.40;99.90
23629;DHT22;11991;57.150;-2.134;2023-03-23T10:04:39;9.40;99.90
23629;DHT22;11991;57.150;-2.134;2023-03-23T10:07:33;9.40;99.90
23629;DHT22;11991;57.150;-2.134;2023-03-23T10:10:01;9.40;99.90
23629;DHT22;11991;57.150;-2.134;2023-03-23T10:15:16;9.50;99.90
23629;DHT22;11991;57.150;-2.134;2023-03-23T10:17:55;9.50;99.90
23629;DHT22;11991;57.150;-2.134;2023-03-23T10:29:18;9.70;99.90
23629;DHT22;11991;57.150;-2.134;2023-03-23T10:31:52;9.70;99.90
23629;DHT22;11991;57.150;-2.134;2023-03-23T10:37:13;9.80;99.90
23629;DHT22;11991;57.150;-2.134;2023-03-23T10:39:50;9.80;99.90
23629;DHT22;11991;57.150;-2.134;2023-03-23T10:42:32;9.80;99.90
23629;DHT22;11991;57.150;-2.134;2023-03-23T10:45:01;9.80;99.90
23629;DHT22;11991;57.150;-2.134;2023-03-23T10:47:37;9.90;99.90
23629;DHT22;11991;57.150;-2.134;2023-03-23T10:50:05;9.90;99.90
23629;DHT22;11991;57.150;-2.134;2023-03-23T10:52:41;10.00;99.90
23629;DHT22;11991;57.150;-2.134;2023-03-23T10:55:14;10.00;99.90
23629;DHT22;11991;57.150;-2.134;2023-03-23T10:57:46;10.10;99.90
23629;DHT22;11991;57.150;-2.134;2023-03-23T11:00:41;10.10;99.90
23629;DHT22;11991;57.150;-2.134;2023-03-23T11:05:53;10.20;99.90
23629;DHT22;11991;57.150;-2.134;2023-03-23T11:08:21;10.20;99.90
23629;DHT22;11991;57.150;-2.134;2023-03-23T11:11:08;10.20;99.90
23629;DHT22;11991;57.150;-2.134;2023-03-23T11:13:41;10.30;99.90
23629;DHT22;11991;57.150;-2.134;2023-03-23T11:16:10;10.30;99.90
23629;DHT22;11991;57.150;-2.134;2023-03-23T11:18:47;10.40;99.90
23629;DHT22;11991;57.150;-2.134;2023-03-23T11:21:14;10.40;99.90
23629;DHT22;11991;57.150;-2.134;2023-03-23T11:23:43;10.50;99.90
23629;DHT22;11991;57.150;-2.134;2023-03-23T11:26:33;10.50;99.90
23629;DHT22;11991;57.150;-2.134;2023-03-23T11:31:35;10.60;99.90
23629;DHT22;11991;57.150;-2.134;2023-03-23T11:36:49;10.60;99.90
23629;DHT22;11991;57.150;-2.134;2023-03-23T11:39:29;10.70;99.90
23629;DHT22;11991;57.150;-2.134;2023-03-23T11:41:58;10.60;99.90
23629;DHT22;11991;57.150;-2.134;2023-03-23T11:44:32;10.60;99.90
23629;DHT22;11991;57.150;-2.134;2023-03-23T11:47:23;10.60;99.90
23629;DHT22;11991;57.150;-2.134;2023-03-23T11:50:09;10.60;99.90
23629;DHT22;11991;57.150;-2.134;2023-03-23T11:52:47;10.60;99.90
23629;DHT22;11991;57.150;-2.134;2023-03-23T11:55:23;10.70;99.90
23629;DHT22;11991;57.150;-2.134;2023-03-23T11:57:52;10.80;99.90
23629;DHT22;11991;57.150;-2.134;2023-03-23T12:00:21;10.80;99.90
23629;DHT22;11991;57.150;-2.134;2023-03-23T12:11:20;11.10;99.90
23629;DHT22;11991;57.150;-2.134;2023-03-23T12:14:37;11.20;99.90
23629;DHT22;11991;57.150;-2.134;2023-03-23T12:20:06;11.10;99.90
23629;DHT22;11991;57.150;-2.134;2023-03-23T12:30:44;11.10;99.90
23629;DHT22;11991;57.150;-2.134;2023-03-23T12:41:10;11.30;99.90
23629;DHT22;11991;57.150;-2.134;2023-03-23T12:49:04;11.50;99.90
23629;DHT22;11991;57.150;-2.134;2023-03-23T12:56:44;11.80;99.90
23629;DHT22;11991;57.150;-2.134;2023-03-23T13:01:47;11.90;99.90
23629;DHT22;11991;57.150;-2.134;2023-03-23T13:04:22;11.90;99.90
23629;DHT22;11991;57.150;-2.134;2023-03-23T13:06:49;12.10;99.90
23629;DHT22;11991;57.150;-2.134;2023-03-23T13:09:46;12.10;99.90
23629;DHT22;11991;57.150;-2.134;2023-03-23T13:12:14;12.20;99.90
23629;DHT22;11991;57.150;-2.134;2023-03-23T13:15:13;12.20;99.90
23629;DHT22;11991;57.150;-2.134;2023-03-23T13:18:02;12.30;99.90
23629;DHT22;11991;57.150;-2.134;2023-03-23T13:20:37;12.30;99.90
23629;DHT22;11991;57.150;-2.134;2023-03-23T13:23:15;12.40;99.90
23629;DHT22;11991;57.150;-2.134;2023-03-23T13:25:51;12.30;99.90
23629;DHT22;11991;57.150;-2.134;2023-03-23T13:28:24;12.30;99.90
23629;DHT22;11991;57.150;-2.134;2023-03-23T13:33:30;12.20;99.90
23629;DHT22;11991;57.150;-2.134;2023-03-23T13:36:01;12.20;99.90
23629;DHT22;11991;57.150;-2.134;2023-03-23T13:38:31;12.20;99.90
23629;DHT22;11991;57.150;-2.134;2023-03-23T13:40:57;12.20;99.90
23629;DHT22;11991;57.150;-2.134;2023-03-23T13:43:31;12.20;99.90
23629;DHT22;11991;57.150;-2.134;2023-03-23T13:46:30;12.30;99.90
23629;DHT22;11991;57.150;-2.134;2023-03-23T13:51:46;12.40;99.90
23629;DHT22;11991;57.150;-2.134;2023-03-23T13:54:14;12.50;99.90
23629;DHT22;11991;57.150;-2.134;2023-03-23T13:56:57;12.60;99.90
23629;DHT22;11991;57.150;-2.134;2023-03-23T14:04:42;12.80;99.90
23629;DHT22;11991;57.150;-2.134;2023-03-23T14:07:16;12.70;99.90
23629;DHT22;11991;57.150;-2.134;2023-03-23T14:09:44;12.70;99.90
23629;DHT22;11991;57.150;-2.134;2023-03-23T14:12:25;12.60;99.90
23629;DHT22;11991;57.150;-2.134;2023-03-23T14:14:58;12.60;99.90
23629;DHT22;11991;57.150;-2.134;2023-03-23T14:17:35;12.50;99.90
23629;DHT22;11991;57.150;-2.134;2023-03-23T14:20:05;12.50;99.90
23629;DHT22;11991;57.150;-2.134;2023-03-23T14:22:39;12.50;99.90
23629;DHT22;11991;57.150;-2.134;2023-03-23T14:25:17;12.50;99.90
23629;DHT22;11991;57.150;-2.134;2023-03-23T14:27:44;12.50;99.90
23629;DHT22;11991;57.150;-2.134;2023-03-23T14:30:20;12.50;99.90
23629;DHT22;11991;57.150;-2.134;2023-03-23T14:32:47;12.50;99.90
23629;DHT22;11991;57.150;-2.134;2023-03-23T14:35:26;12.40;99.90
23629;DHT22;11991;57.150;-2.134;2023-03-23T14:37:53;12.40;99.90
23629;DHT22;11991;57.150;-2.134;2023-03-23T14:40:19;12.40;99.90
23629;DHT22;11991;57.150;-2.134;2023-03-23T14:42:46;12.50;99.90
23629;DHT22;11991;57.150;-2.134;2023-03-23T14:45:17;12.60;99.90
23629;DHT22;11991;57.150;-2.134;2023-03-23T14:47:46;12.70;99.90
23629;DHT22;11991;57.150;-2.134;2023-03-23T14:50:41;12.80;99.90
23629;DHT22;11991;57.150;-2.134;2023-03-23T14:53:23;12.80;99.90
23629;DHT22;11991;57.150;-2.134;2023-03-23T14:55:51;12.80;99.90
23629;DHT22;11991;57.150;-2.134;2023-03-23T14:58:20;12.80;99.90
23629;DHT22;11991;57.150;-2.134;2023-03-23T15:01:13;12.80;99.90
23629;DHT22;11991;57.150;-2.134;2023-03-23T15:03:44;12.70;99.90
23629;DHT22;11991;57.150;-2.134;2023-03-23T15:06:15;12.60;99.90
23629;DHT22;11991;57.150;-2.134;2023-03-23T15:08:44;12.60;99.90
23629;DHT22;11991;57.150;-2.134;2023-03-23T15:13:48;12.60;99.90
23629;DHT22;11991;57.150;-2.134;2023-03-23T15:16:23;12.50;99.90
23629;DHT22;11991;57.150;-2.134;2023-03-23T15:19:04;12.30;99.90
23629;DHT22;11991;57.150;-2.134;2023-03-23T15:21:34;12.20;99.90
23629;DHT22;11991;57.150;-2.134;2023-03-23T15:24:02;12.10;99.90
23629;DHT22;11991;57.150;-2.134;2023-03-23T15:26:42;12.00;99.90
23629;DHT22;11991;57.150;-2.134;2023-03-23T15:31:53;11.90;99.90
23629;DHT22;11991;57.150;-2.134;2023-03-23T15:34:33;11.90;99.90
23629;DHT22;11991;57.150;-2.134;2023-03-23T15:37:15;11.90;99.90
23629;DHT22;11991;57.150;-2.134;2023-03-23T15:39:45;11.80;99.90
23629;DHT22;11991;57.150;-2.134;2023-03-23T15:42:30;11.70;99.90
23629;DHT22;11991;57.150;-2.134;2023-03-23T15:45:15;11.70;99.90
23629;DHT22;11991;57.150;-2.134;2023-03-23T15:50:15;11.50;99.90
23629;DHT22;11991;57.150;-2.134;2023-03-23T15:52:42;11.40;99.90
23629;DHT22;11991;57.150;-2.134;2023-03-23T15:57:47;11.30;99.90
23629;DHT22;11991;57.150;-2.134;2023-03-23T16:00:20;11.20;99.90
23629;DHT22;11991;57.150;-2.134;2023-03-23T16:03:01;11.20;99.90
23629;DHT22;11991;57.150;-2.134;2023-03-23T16:05:30;11.20;99.90
23629;DHT22;11991;57.150;-2.134;2023-03-23T16:07:58;11.10;99.90
23629;DHT22;11991;57.150;-2.134;2023-03-23T16:10:27;11.10;99.90
23629;DHT22;11991;57.150;-2.134;2023-03-23T16:12:54;11.10;99.90
23629;DHT22;11991;57.150;-2.134;2023-03-23T16:15:21;11.00;99.90
23629;DHT22;11991;57.150;-2.134;2023-03-23T16:17:48;11.00;99.90
23629;DHT22;11991;57.150;-2.134;2023-03-23T16:20:19;11.00;99.90
23629;DHT22;11991;57.150;-2.134;2023-03-23T16:22:47;11.00;99.90
23629;DHT22;11991;57.150;-2.134;2023-03-23T16:25:15;11.00;99.90
23629;DHT22;11991;57.150;-2.134;2023-03-23T16:27:44;10.90;99.90
23629;DHT22;11991;57.150;-2.134;2023-03-23T16:30:24;10.90;99.90
23629;DHT22;11991;57.150;-2.134;2023-03-23T16:32:52;11.00;99.90
23629;DHT22;11991;57.150;-2.134;2023-03-23T16:35:23;11.00;99.90
23629;DHT22;11991;57.150;-2.134;2023-03-23T16:37:53;11.00;99.90
23629;DHT22;11991;57.150;-2.134;2023-03-23T16:40:37;11.10;99.90
23629;DHT22;11991;57.150;-2.134;2023-03-23T16:43:05;11.10;99.90
23629;DHT22;11991;57.150;-2.134;2023-03-23T16:45:36;11.20;99.90
23629;DHT22;11991;57.150;-2.134;2023-03-23T16:48:05;11.30;99.90
23629;DHT22;11991;57.150;-2.134;2023-03-23T16:50:36;11.30;99.90
23629;DHT22;11991;57.150;-2.134;2023-03-23T16:53:05;11.40;99.90
23629;DHT22;11991;57.150;-2.134;2023-03-23T16:55:35;11.40;99.90
23629;DHT22;11991;57.150;-2.134;2023-03-23T16:58:03;11.40;99.90
23629;DHT22;11991;57.150;-2.134;2023-03-23T17:00:46;11.30;99.90
23629;DHT22;11991;57.150;-2.134;2023-03-23T17:03:13;11.20;99.90
23629;DHT22;11991;57.150;-2.134;2023-03-23T17:05:42;11.10;99.90
23629;DHT22;11991;57.150;-2.134;2023-03-23T17:08:11;11.00;99.90
23629;DHT22;11991;57.150;-2.134;2023-03-23T17:10:39;10.90;99.90
23629;DHT22;11991;57.150;-2.134;2023-03-23T17:13:07;10.80;99.90
23629;DHT22;11991;57.150;-2.134;2023-03-23T17:15:36;10.70;99.90
23629;DHT22;11991;57.150;-2.134;2023-03-23T17:18:05;10.60;99.90
23629;DHT22;11991;57.150;-2.134;2023-03-23T17:20:33;10.50;99.90
23629;DHT22;11991;57.150;-2.134;2023-03-23T17:23:01;10.40;99.90
23629;DHT22;11991;57.150;-2.134;2023-03-23T17:25:29;10.40;99.90
23629;DHT22;11991;57.150;-2.134;2023-03-23T17:27:57;10.30;99.90
23629;DHT22;11991;57.150;-2.134;2023-03-23T17:30:34;10.20;99.90
23629;DHT22;11991;57.150;-2.134;2023-03-23T17:33:01;10.20;99.90
23629;DHT22;11991;57.150;-2.134;2023-03-23T17:35:29;10.10;99.90
23629;DHT22;11991;57.150;-2.134;2023-03-23T17:37:56;10.10;99.90
23629;DHT22;11991;57.150;-2.134;2023-03-23T17:40:23;10.00;99.90
23629;DHT22;11991;57.150;-2.134;2023-03-23T17:42:51;10.00;99.90
23629;DHT22;11991;57.150;-2.134;2023-03-23T17:45:18;9.90;99.90
23629;DHT22;11991;57.150;-2.134;2023-03-23T17:47:45;9.90;99.90
23629;DHT22;11991;57.150;-2.134;2023-03-23T17:50:13;9.90;99.90